Adobe Reservoir




Date Battery Voltage (V) Panel Temperature (degF) Reservoir Height (ft) Reservoir Acre Feet (AF) Blue Cut-Clipper-Western Meter (cfs) Hunter Plant Meter (cfs) Air Temperature (degF) Blue Cut-Clipper-Western Meter GPM (gpm) Hunter Plant Meter GPM (gpm) Reservoir Elevation (ft) Battery Voltage 24 (V) Hunter Plant Meter Total Gallons (gal) Pond Battery Voltage (V) Pond 24V Battery Voltage (V) Pipe PSI (PSI) K Gallons Total (gal) Signal Strength (db) Call Fails (ea) Total Fails (ea) Tries (ea) Water Level Sensor Upper Mammoth Meter (gpm) Upper Mammoth Meter (cfs)
07/01/2018 12.3 25.3 95.6 989 36.4 21.0 61 16,335 9,413 5,995.6 28.8 12.2 25.3 23.8 8,636,040.00 0.00 4,243.06 9.45
07/02/2018 12.3 26.3 95.9 1,011 28.5 24.2 61 12,808 10,856 5,995.9 28.9 12.2 25.1 24.1 8,651,801.00 0.00 5,011.88 11.17
07/03/2018 12.3 27.8 96.1 1,032 28.3 24.7 61 12,705 11,091 5,996.1 29.1 12.2 24.8 24.2 8,667,874.00 0.00 4,626.74 10.31
07/04/2018 12.3 27.6 96.4 1,051 25.5 22.4 61 11,439 10,052 5,996.4 28.8 12.2 25.2 24.7 8,682,527.00 0.00 4,778.96 10.65
07/05/2018 12.3 27.8 96.4 1,054 28.1 29.1 61 12,615 13,068 5,996.4 28.8 12.2 24.8 24.0 8,701,247.00 0.00 5,264.86 11.73
07/06/2018 12.3 28.8 96.2 1,040 33.8 26.7 62 15,149 11,989 5,996.2 28.9 12.2 25.1 23.6 8,718,560.00 0.00 5,609.10 12.50
07/07/2018 12.3 28.4 96.1 1,027 37.9 16.3 62 17,023 7,332 5,996.1 29.0 12.2 24.5 24.0 8,729,625.00 0.00 5,645.97 12.58
07/08/2018 12.3 28.0 96.0 1,025 30.1 23.3 62 13,492 10,450 5,996.0 29.0 12.2 25.0 24.2 8,744,888.00 0.00 4,372.01 9.74
07/09/2018 12.3 28.8 96.0 1,025 37.9 21.0 62 17,018 9,409 5,996.0 29.1 12.2 25.0 23.5 8,758,786.00 0.00 6,207.08 13.83
07/10/2018 12.3 29.7 95.7 999 43.7 21.4 63 19,599 9,607 5,995.7 29.1 12.2 25.2 23.0 8,772,943.00 0.00 5,331.11 11.88
07/11/2018 12.3 29.6 95.4 974 47.0 22.3 64 21,083 10,013 5,995.4 28.9 12.2 24.8 22.7 8,787,567.00 0.00 4,381.32 9.76
07/12/2018 12.3 28.5 94.9 939 43.1 28.7 64 19,363 12,899 5,994.9 29.0 12.2 24.8 22.1 8,806,287.00 0.00 4,899.44 10.92
07/13/2018 12.3 27.6 94.7 927 35.6 28.8 64 15,990 12,931 5,994.7 28.9 12.2 24.9 22.8 8,825,007.00 0.00 4,669.86 10.40
07/14/2018 12.3 27.6 95.0 944 23.9 28.9 63 10,710 12,963 5,995.0 29.0 12.2 24.2 23.9 8,843,727.00 62.03 3,909.58 8.71
07/15/2018 12.3 26.2 94.9 938 13.5 29.0 63 6,073 13,008 5,994.9 29.5 12.2 24.9 24.9 8,862,447.00 0.00 1,459.93 3.25
07/16/2018 12.3 27.6 95.7 997 18.2 29.0 63 8,170 13,008 5,995.7 29.4 12.2 24.7 25.1 8,881,167.00 0.00 1,344.86 3.00
07/17/2018 12.3 27.4 96.5 1,058 20.4 29.0 63 9,161 13,035 5,996.5 29.2 12.2 25.0 25.3 8,899,887.00 0.00 1,137.50 2.53
07/18/2018 12.3 28.4 97.0 1,104 25.0 27.7 63 11,226 12,439 5,997.0 29.2 12.2 25.1 25.2 8,917,796.00 0.00 1,989.17 4.43
07/19/2018 12.3 28.9 97.4 1,130 20.2 27.5 64 9,068 12,357 5,997.4 29.2 12.2 24.7 25.6 8,935,508.00 0.00 2,384.31 5.31
07/20/2018 12.3 28.4 97.9 1,175 16.8 27.3 64 7,528 12,261 5,997.9 29.3 12.2 24.5 25.9 8,953,003.00 0.00 1,971.18 4.39
07/21/2018 12.3 27.5 98.1 1,192 16.7 26.5 64 7,493 11,914 5,998.1 29.3 12.2 24.5 26.1 8,970,037.00 0.00 1,446.60 3.22
07/22/2018 12.3 27.2 98.1 1,191 20.2 24.8 64 9,049 11,116 5,998.1 29.2 12.2 24.9 26.0 8,986,019.00 0.00 844.03 1.88
07/23/2018 12.3 28.2 98.0 1,180 26.9 26.9 64 12,085 12,088 5,998.0 29.2 12.2 24.8 25.5 9,003,314.00 0.00 1,169.86 2.61
07/24/2018 12.3 28.0 97.7 1,160 27.9 25.7 64 12,505 11,518 5,997.7 29.3 12.2 24.7 25.4 9,019,849.00 0.00 1,135.97 2.53
07/25/2018 12.3 28.5 97.4 1,130 29.3 29.3 64 13,130 13,156 5,997.4 29.5 12.2 24.8 24.9 9,038,569.00 0.00 1,363.26 3.04
07/26/2018 12.3 29.0 97.1 1,110 19.2 28.4 65 8,618 12,760 5,997.1 29.5 12.2 25.0 25.4 9,056,753.00 0.00 2,001.53 4.46
07/27/2018 12.3 29.4 96.9 1,091 21.4 28.4 65 9,616 12,735 5,996.9 29.5 12.2 24.9 25.1 9,074,904.00 0.00 1,972.15 4.39
07/28/2018 12.3 28.6 96.6 1,070 16.5 29.3 65 7,389 13,153 5,996.6 29.4 12.2 24.7 25.2 9,093,624.00 0.00 2,542.15 5.66
07/29/2018 12.3 27.7 96.3 1,043 16.3 22.3 65 7,332 9,992 5,996.3 29.5 12.2 25.1 25.3 9,108,155.00 0.00 2,579.51 5.75
07/30/2018 12.3 28.6 95.8 1,005 25.4 29.0 65 11,400 13,021 5,995.8 29.6 12.2 25.1 24.1 9,126,772.00 0.00 3,431.18 7.65
07/31/2018 12.3 29.0 95.0 948 29.1 27.5 65 13,038 12,353 5,995.0 29.6 12.2 25.1 23.4 9,144,525.00 0.00 4,110.21 9.16
Average 27.2 26.0 7.32
Maximum 47.0 29.3 13.83
Minimum 13.5 16.3 1.88
Total Volume (AF) 1,671.3 1,599.1 449.92